Time;durP1;ratioP1;P1;durP2;ratioP2;P2;SDS_P1;SDS_P2;PMS_P1;PMS_P2;Temp;Humidity;BMP_temperature;BMP_pressure;BME280_temperature;BME280_humidity;BME280_pressure;Samples;Min_cycle;Max_cycle;Signal;HPM_P1;HPM_P2
2022/03/27 00:00:41;;;;;;;14.25;11.68;;;;;;;5.93;45.93;96504.28;6368479;22;20265;-60
2022/03/27 00:03:06;;;;;;;14.50;11.52;;;;;;;5.79;47.08;96510.34;6368755;22;20426;-60
2022/03/27 00:05:33;;;;;;;14.05;12.65;;;;;;;5.79;46.75;96508.59;6367921;22;19998;-60
2022/03/27 00:07:58;;;;;;;16.95;11.40;;;;;;;5.78;45.79;96503.44;6368032;22;20005;-60
2022/03/27 00:10:24;;;;;;;14.43;11.23;;;;;;;5.78;46.48;96508.69;6366903;22;19999;-59
2022/03/27 00:12:49;;;;;;;12.32;9.10;;;;;;;5.70;46.61;96509.97;6367505;22;20075;-60
2022/03/27 00:15:15;;;;;;;10.68;8.63;;;;;;;5.64;46.84;96515.59;6367587;22;20316;-60
2022/03/27 00:17:40;;;;;;;13.70;9.00;;;;;;;5.62;46.25;96520.03;6367479;22;20406;-60
2022/03/27 00:20:09;;;;;;;12.55;10.15;;;;;;;5.64;46.97;96518.19;6367654;22;20104;-60
2022/03/27 00:22:37;;;;;;;11.90;10.38;;;;;;;5.63;46.49;96519.09;6339253;22;20081;-60
2022/03/27 00:25:04;;;;;;;9.93;8.32;;;;;;;5.65;46.74;96516.41;6366936;22;20006;-60
2022/03/27 00:27:31;;;;;;;8.90;8.02;;;;;;;5.65;46.15;96517.25;6366545;22;20013;-60
2022/03/27 00:29:58;;;;;;;8.70;7.55;;;;;;;5.63;45.89;96518.28;6367674;22;20017;-60
2022/03/27 00:32:24;;;;;;;8.38;7.57;;;;;;;5.53;47.51;96528.44;6364347;22;20013;-60
2022/03/27 00:34:49;;;;;;;8.57;7.55;;;;;;;5.43;47.74;96515.06;6366926;22;19998;-59
2022/03/27 00:37:15;;;;;;;9.32;8.05;;;;;;;5.43;47.11;96512.44;6368038;22;20094;-60
2022/03/27 00:39:40;;;;;;;7.35;6.65;;;;;;;5.48;46.25;96515.63;6367547;22;20047;-60
2022/03/27 00:42:06;;;;;;;6.65;5.95;;;;;;;5.49;45.86;96517.31;6366806;22;20037;-60
2022/03/27 00:44:32;;;;;;;7.10;6.50;;;;;;;5.50;46.28;96529.44;6367627;22;20342;-60
2022/03/27 00:46:58;;;;;;;12.45;8.00;;;;;;;5.39;47.67;96522.22;6367332;22;20006;-60
2022/03/27 00:49:23;;;;;;;9.77;6.95;;;;;;;5.37;46.99;96526.69;6367534;22;20006;-60
2022/03/27 00:51:49;;;;;;;7.88;7.07;;;;;;;5.40;46.19;96516.06;6367638;22;20075;-60
2022/03/27 00:54:14;;;;;;;11.68;8.75;;;;;;;5.52;45.79;96513.69;6367886;22;19999;-59
2022/03/27 00:56:39;;;;;;;13.50;11.68;;;;;;;5.48;45.87;96520.84;6367500;22;20002;-60
2022/03/27 00:59:05;;;;;;;11.75;7.90;;;;;;;5.41;47.13;96519.53;6367718;22;20368;-60
2022/03/27 01:01:36;;;;;;;12.57;7.65;;;;;;;5.38;47.02;96519.72;6367129;22;20003;-61
2022/03/27 01:04:05;;;;;;;9.73;7.35;;;;;;;5.34;46.55;96524.28;6367443;22;20008;-60
2022/03/27 01:06:32;;;;;;;19.17;12.48;;;;;;;5.33;46.26;96519.97;6340255;22;20091;-60
2022/03/27 01:11:44;;;;;;;12.55;9.20;;;;;;;5.17;47.13;96520.03;6367244;22;20408;-60
2022/03/27 01:14:10;;;;;;;11.52;8.00;;;;;;;5.17;46.79;96520.03;6367336;22;19999;-60
2022/03/27 01:16:43;;;;;;;9.00;7.40;;;;;;;5.16;47.29;96515.75;6367120;22;20393;-60
2022/03/27 01:19:12;;;;;;;8.45;7.35;;;;;;;5.10;48.75;96523.94;6367362;22;20002;-60
2022/03/27 01:21:41;;;;;;;10.43;6.85;;;;;;;5.06;48.26;96523.25;6367692;22;20033;-60
2022/03/27 01:24:07;;;;;;;7.18;6.40;;;;;;;5.09;48.36;96525.69;6367755;22;20006;-61
2022/03/27 01:26:37;;;;;;;7.10;6.40;;;;;;;5.10;48.28;96516.09;6367111;22;20017;-60
2022/03/27 01:29:04;;;;;;;7.55;5.97;;;;;;;5.13;47.47;96516.75;6367469;22;20461;-60
2022/03/27 01:31:30;;;;;;;6.93;5.43;;;;;;;5.19;47.03;96523.38;6339281;22;20005;-60
2022/03/27 01:33:55;;;;;;;7.82;6.00;;;;;;;5.18;48.20;96518.25;6367362;22;19998;-59
2022/03/27 01:36:22;;;;;;;6.95;6.22;;;;;;;5.11;48.07;96517.78;6366923;22;20423;-59
2022/03/27 01:38:49;;;;;;;7.40;6.65;;;;;;;4.99;48.47;96512.31;6364970;22;20028;-60
2022/03/27 01:41:15;;;;;;;6.65;5.93;;;;;;;4.92;48.86;96512.75;6366347;22;20370;-60
2022/03/27 01:43:40;;;;;;;6.82;6.15;;;;;;;4.94;48.35;96527.41;6366971;22;19998;-59
2022/03/27 01:46:06;;;;;;;5.88;5.38;;;;;;;4.99;47.85;96514.09;6366950;22;20038;-60
2022/03/27 01:48:32;;;;;;;6.07;5.55;;;;;;;4.93;49.20;96527.47;6366397;22;20017;-61
2022/03/27 01:51:01;;;;;;;12.43;6.90;;;;;;;4.85;48.53;96528.75;6366268;22;20002;-60
2022/03/27 01:53:26;;;;;;;7.43;6.00;;;;;;;4.75;50.09;96521.53;6366806;22;20003;-60
2022/03/27 01:55:52;;;;;;;5.78;5.15;;;;;;;4.71;49.38;96526.06;6366841;22;20419;-59
2022/03/27 01:58:17;;;;;;;6.55;5.82;;;;;;;4.74;48.99;96523.28;6366963;22;19994;-60
2022/03/27 02:00:43;;;;;;;6.68;5.70;;;;;;;4.68;50.44;96516.66;6366968;22;20002;-60
2022/03/27 02:03:10;;;;;;;6.10;5.50;;;;;;;4.64;50.46;96511.69;6366999;22;20346;-59
2022/03/27 02:05:36;;;;;;;6.07;5.50;;;;;;;4.55;50.58;96523.47;6366528;22;20002;-59
2022/03/27 02:08:01;;;;;;;6.10;5.50;;;;;;;4.49;51.18;96519.41;6366968;22;20005;-61
2022/03/27 02:10:27;;;;;;;5.68;5.07;;;;;;;4.47;50.91;96518.66;6366872;22;20061;-60
2022/03/27 02:12:52;;;;;;;7.00;5.57;;;;;;;4.43;51.20;96522.38;6367151;22;19999;-60
2022/03/27 02:15:18;;;;;;;7.65;5.35;;;;;;;4.47;50.27;96523.88;6366737;22;19998;-60
2022/03/27 02:17:43;;;;;;;8.10;6.30;;;;;;;4.48;50.11;96522.94;6366661;22;20014;-60
2022/03/27 02:20:09;;;;;;;8.50;5.90;;;;;;;4.43;51.19;96520.63;6339217;22;20022;-60
2022/03/27 02:22:35;;;;;;;8.93;6.03;;;;;;;4.38;51.55;96529.59;6366797;22;20446;-59
2022/03/27 02:25:00;;;;;;;6.85;5.88;;;;;;;4.30;51.96;96533.44;6366209;22;20007;-60
2022/03/27 02:27:26;;;;;;;7.18;5.60;;;;;;;4.29;51.87;96530.94;6366412;22;20017;-60
2022/03/27 02:29:51;;;;;;;7.47;6.28;;;;;;;4.15;52.03;96532.50;6366712;22;20396;-60
2022/03/27 02:32:16;;;;;;;7.28;5.70;;;;;;;4.10;52.70;96529.31;6339276;22;20006;-59
2022/03/27 02:34:42;;;;;;;7.88;6.05;;;;;;;4.10;52.72;96531.91;6339039;22;20036;-60
2022/03/27 02:37:07;;;;;;;6.57;5.38;;;;;;;4.10;52.02;96534.53;6366547;22;20005;-60
2022/03/27 02:39:33;;;;;;;6.50;5.90;;;;;;;4.18;51.79;96536.72;6366289;22;20123;-60
2022/03/27 02:41:58;;;;;;;6.22;5.63;;;;;;;4.12;52.71;96537.88;6366570;22;20002;-60
2022/03/27 02:44:24;;;;;;;7.43;5.80;;;;;;;4.07;53.97;96536.44;6366410;22;19998;-60
2022/03/27 02:46:50;;;;;;;7.22;5.68;;;;;;;4.00;52.77;96531.56;6366851;22;20287;-59
2022/03/27 02:49:16;;;;;;;7.00;5.32;;;;;;;4.05;52.34;96543.50;6365804;22;20018;-60
2022/03/27 02:51:45;;;;;;;5.03;4.63;;;;;;;4.01;52.71;96542.84;6366300;22;20331;-60
2022/03/27 02:54:11;;;;;;;6.03;5.53;;;;;;;3.89;53.77;96541.72;6366633;22;20002;-60
2022/03/27 02:56:36;;;;;;;5.40;4.90;;;;;;;3.83;53.97;96536.81;6366758;22;20402;-60
2022/03/27 02:59:02;;;;;;;7.03;5.72;;;;;;;3.85;53.75;96545.38;6366970;22;20002;-59
2022/03/27 03:01:27;;;;;;;5.25;4.78;;;;;;;3.89;53.40;96546.06;6366476;22;20081;-60
2022/03/27 03:03:53;;;;;;;9.73;5.50;;;;;;;3.84;54.00;96530.66;6366855;22;20354;-59
2022/03/27 03:06:20;;;;;;;5.50;4.97;;;;;;;3.73;55.08;96542.50;6366590;22;20048;-60
2022/03/27 03:08:46;;;;;;;5.63;5.00;;;;;;;3.75;54.04;96531.97;6366572;22;20006;-59
2022/03/27 03:11:13;;;;;;;6.03;5.32;;;;;;;3.71;54.38;96539.13;6366783;22;20053;-59
2022/03/27 03:13:39;;;;;;;5.63;5.10;;;;;;;3.69;54.26;96535.78;6366848;22;20006;-59
2022/03/27 03:16:07;;;;;;;7.85;5.22;;;;;;;3.65;55.20;96546.41;6366615;22;20403;-59
2022/03/27 03:18:34;;;;;;;7.88;5.72;;;;;;;3.64;54.68;96542.13;6366500;22;20002;-60
2022/03/27 03:20:59;;;;;;;5.95;5.40;;;;;;;3.56;56.41;96537.31;6367200;22;20143;-59
2022/03/27 03:23:25;;;;;;;8.82;5.30;;;;;;;3.50;55.73;96540.22;6366657;22;20067;-59
2022/03/27 03:25:50;;;;;;;5.45;5.00;;;;;;;3.42;54.97;96535.41;6367085;22;20342;-59
2022/03/27 03:28:15;;;;;;;8.23;5.45;;;;;;;3.40;56.31;96527.66;6366707;22;20060;-60
2022/03/27 03:30:41;;;;;;;5.82;5.20;;;;;;;3.36;56.81;96536.53;6366764;22;20398;-59
2022/03/27 03:33:07;;;;;;;5.35;4.88;;;;;;;3.33;55.81;96531.50;6366938;22;19998;-59
2022/03/27 03:35:32;;;;;;;5.03;4.53;;;;;;;3.28;56.49;96536.91;6366436;22;20006;-59
2022/03/27 03:37:58;;;;;;;5.10;4.60;;;;;;;3.27;55.87;96537.00;6366844;22;20006;-59
2022/03/27 03:40:24;;;;;;;5.45;4.95;;;;;;;3.29;55.07;96541.22;6366248;22;20002;-60
2022/03/27 03:42:49;;;;;;;5.07;4.68;;;;;;;3.29;57.28;96537.78;6366586;22;20147;-60
2022/03/27 03:45:14;;;;;;;6.07;5.30;;;;;;;3.25;56.67;96533.66;6366836;22;20418;-60
2022/03/27 03:47:40;;;;;;;5.47;4.90;;;;;;;3.24;55.83;96531.97;6366117;22;20304;-60
2022/03/27 03:50:05;;;;;;;5.80;5.20;;;;;;;3.27;54.90;96550.03;6366604;22;20446;-59
2022/03/27 03:52:31;;;;;;;8.45;5.28;;;;;;;3.26;54.71;96541.38;6366037;22;20006;-60
2022/03/27 03:54:56;;;;;;;5.32;4.82;;;;;;;3.25;55.75;96541.47;6366680;22;20100;-59
2022/03/27 03:57:22;;;;;;;6.05;4.95;;;;;;;3.25;55.57;96533.66;6366289;22;20007;-60
2022/03/27 03:59:47;;;;;;;6.38;5.57;;;;;;;3.21;55.95;96534.72;6366599;22;20009;-59
2022/03/27 04:02:15;;;;;;;6.15;5.28;;;;;;;3.56;54.05;96538.16;6366912;22;20077;-60
2022/03/27 04:04:40;;;;;;;5.40;4.63;;;;;;;3.72;50.66;96535.59;6367692;22;20002;-60
2022/03/27 04:07:06;;;;;;;4.72;4.32;;;;;;;3.72;52.78;96537.34;6367549;22;20506;-60
2022/03/27 04:09:31;;;;;;;5.57;5.00;;;;;;;3.59;53.03;96544.97;6368100;22;20319;-60
2022/03/27 04:11:57;;;;;;;5.53;4.82;;;;;;;3.54;51.86;96532.19;6368365;22;20017;-60
2022/03/27 04:14:23;;;;;;;7.65;5.22;;;;;;;3.56;51.56;96545.97;6368175;22;20499;-59
2022/03/27 04:16:48;;;;;;;6.60;5.22;;;;;;;3.58;52.00;96541.53;6368490;22;20010;-59
2022/03/27 04:19:14;;;;;;;5.22;4.78;;;;;;;3.55;52.94;96543.44;6368619;22;20026;-60
2022/03/27 04:21:40;;;;;;;6.72;4.70;;;;;;;3.45;53.17;96537.84;6368045;22;20323;-60
2022/03/27 04:24:06;;;;;;;5.13;4.65;;;;;;;3.44;52.15;96544.84;6368302;22;20403;-60
2022/03/27 04:26:32;;;;;;;7.25;5.60;;;;;;;3.40;52.67;96542.44;6368205;22;19998;-60
2022/03/27 04:28:58;;;;;;;5.22;4.72;;;;;;;3.32;52.58;96544.59;6367885;22;20010;-59
2022/03/27 04:31:23;;;;;;;5.82;4.65;;;;;;;3.31;52.98;96548.94;6340106;22;20070;-59
2022/03/27 04:33:48;;;;;;;4.65;4.25;;;;;;;3.20;54.06;96552.09;6368214;22;20002;-59
2022/03/27 04:36:14;;;;;;;5.80;4.88;;;;;;;3.13;54.58;96553.31;6368031;22;20077;-59
2022/03/27 04:38:39;;;;;;;8.30;4.88;;;;;;;3.12;53.95;96549.84;6367981;22;20398;-59
2022/03/27 04:41:04;;;;;;;6.32;5.13;;;;;;;3.12;54.38;96549.84;6368826;22;20010;-60
2022/03/27 04:43:32;;;;;;;5.18;4.78;;;;;;;3.06;56.24;96554.50;6367944;22;20433;-60
2022/03/27 04:45:58;;;;;;;6.10;5.10;;;;;;;2.99;55.51;96553.97;6368270;22;20116;-60
2022/03/27 04:48:25;;;;;;;6.90;5.07;;;;;;;2.95;55.35;96558.47;6367483;22;20038;-60
2022/03/27 04:50:51;;;;;;;9.95;6.47;;;;;;;2.96;55.98;96561.91;6367625;22;19999;-60
2022/03/27 04:53:17;;;;;;;8.55;5.72;;;;;;;2.93;55.83;96565.53;6367975;22;19998;-60
2022/03/27 04:55:42;;;;;;;6.75;5.70;;;;;;;3.04;54.54;96561.53;6367356;22;20003;-60
2022/03/27 04:58:09;;;;;;;10.18;7.18;;;;;;;3.04;55.07;96569.34;6367849;22;20316;-60
2022/03/27 05:00:35;;;;;;;7.72;5.40;;;;;;;3.00;54.93;96571.28;6367570;22;20030;-60
2022/03/27 05:03:00;;;;;;;6.05;5.45;;;;;;;2.97;54.85;96572.25;6368159;22;20006;-60
2022/03/27 05:05:26;;;;;;;5.50;5.00;;;;;;;2.89;56.10;96566.59;6367538;22;20006;-60
2022/03/27 05:07:53;;;;;;;6.90;5.57;;;;;;;2.85;56.59;96568.47;6367718;22;20071;-59
2022/03/27 05:10:19;;;;;;;6.50;5.45;;;;;;;2.83;56.73;96565.13;6367651;22;20086;-60
2022/03/27 05:12:45;;;;;;;12.70;6.82;;;;;;;2.85;56.93;96575.44;6367773;22;20303;-59
2022/03/27 05:15:12;;;;;;;9.27;7.13;;;;;;;2.79;57.72;96575.72;6367895;22;20002;-60
2022/03/27 05:17:53;;;;;;;8.35;6.97;;;;;;;2.68;57.39;96581.44;6367530;22;20006;-60
2022/03/27 05:20:18;;;;;;;8.88;7.18;;;;;;;2.72;56.77;96576.03;6367505;22;20007;-60
2022/03/27 05:22:44;;;;;;;6.55;5.80;;;;;;;2.72;57.12;96567.34;6367885;22;20159;-60
2022/03/27 05:25:12;;;;;;;6.38;5.70;;;;;;;2.61;58.01;96580.88;6367790;22;20044;-59
2022/03/27 05:27:53;;;;;;;9.45;6.43;;;;;;;2.58;58.16;96586.22;6367332;22;20055;-60
2022/03/27 05:30:21;;;;;;;7.15;6.45;;;;;;;2.58;58.34;96584.47;6367439;22;20006;-60
2022/03/27 05:32:47;;;;;;;8.40;6.05;;;;;;;2.61;57.38;96578.25;6368251;22;20401;-60
2022/03/27 05:35:12;;;;;;;9.85;6.38;;;;;;;2.70;56.84;96585.66;6367292;22;20511;-60
2022/03/27 05:37:38;;;;;;;8.82;6.22;;;;;;;2.73;57.43;96589.84;6367212;22;20022;-59
2022/03/27 05:40:06;;;;;;;7.65;6.38;;;;;;;2.68;58.19;96581.44;6367704;22;20069;-60
2022/03/27 05:42:32;;;;;;;8.48;5.68;;;;;;;2.68;59.13;96599.63;6367018;22;20495;-60
2022/03/27 05:44:57;;;;;;;6.63;5.25;;;;;;;2.70;58.53;96603.00;6366770;22;20002;-59
2022/03/27 05:47:23;;;;;;;6.47;5.88;;;;;;;2.67;57.90;96592.75;6366960;22;20053;-60
2022/03/27 05:49:48;;;;;;;5.82;5.32;;;;;;;2.71;57.37;96592.53;6367874;22;20002;-60
2022/03/27 05:52:16;;;;;;;6.95;5.65;;;;;;;2.79;56.03;96600.00;6367334;22;20308;-60
2022/03/27 05:54:42;;;;;;;5.78;4.82;;;;;;;2.89;56.01;96596.94;6367154;22;20173;-60
2022/03/27 05:57:07;;;;;;;5.40;4.90;;;;;;;2.96;57.21;96604.38;6367611;22;20009;-60
2022/03/27 05:59:32;;;;;;;7.32;5.47;;;;;;;2.99;58.22;96606.84;6339175;22;20025;-60
2022/03/27 06:01:57;;;;;;;6.55;5.93;;;;;;;3.09;57.04;96601.19;6367065;22;20077;-60
2022/03/27 06:04:23;;;;;;;10.13;6.70;;;;;;;3.22;56.48;96610.09;6366962;22;19998;-60
2022/03/27 06:06:48;;;;;;;7.28;5.25;;;;;;;3.37;55.52;96615.50;6367215;22;20003;-59
2022/03/27 06:09:14;;;;;;;8.10;5.10;;;;;;;3.58;54.24;96616.19;6367264;22;20002;-59
2022/03/27 06:11:39;;;;;;;7.57;5.75;;;;;;;3.69;56.19;96613.91;6366880;22;20006;-60
2022/03/27 06:14:04;;;;;;;6.90;5.80;;;;;;;3.80;55.30;96615.97;6366826;22;20040;-60
2022/03/27 06:16:30;;;;;;;5.47;5.07;;;;;;;3.79;57.20;96619.50;6366933;22;20009;-60
2022/03/27 06:18:55;;;;;;;7.43;5.13;;;;;;;3.92;55.01;96622.31;6366742;22;20159;-60
2022/03/27 06:21:21;;;;;;;5.43;4.93;;;;;;;4.00;54.64;96624.53;6366922;22;20097;-59
2022/03/27 06:23:46;;;;;;;7.28;5.72;;;;;;;3.98;56.06;96627.22;6367164;22;20495;-59
2022/03/27 06:26:12;;;;;;;7.85;4.63;;;;;;;4.03;54.94;96633.94;6366653;22;20002;-59
2022/03/27 06:28:37;;;;;;;5.35;4.85;;;;;;;4.17;54.11;96623.66;6366670;22;20450;-60
2022/03/27 06:31:02;;;;;;;4.95;4.55;;;;;;;4.29;53.00;96625.63;6367636;22;20006;-60
2022/03/27 06:33:28;;;;;;;5.25;4.72;;;;;;;4.37;53.51;96627.84;6366599;22;20445;-60
2022/03/27 06:35:53;;;;;;;6.75;5.15;;;;;;;4.39;54.59;96632.97;6367000;22;20353;-59
2022/03/27 06:38:19;;;;;;;6.75;5.32;;;;;;;4.43;55.32;96631.88;6366976;22;20005;-60
2022/03/27 06:40:44;;;;;;;6.25;5.20;;;;;;;4.46;54.81;96641.31;6366880;22;20342;-60
2022/03/27 06:43:10;;;;;;;5.18;4.68;;;;;;;4.49;53.42;96638.56;6367297;22;20446;-60
2022/03/27 06:45:36;;;;;;;7.80;4.82;;;;;;;4.54;53.05;96640.00;6366534;22;20207;-60
2022/03/27 06:48:01;;;;;;;4.85;4.45;;;;;;;4.65;54.16;96636.81;6366671;22;20010;-60
2022/03/27 06:50:26;;;;;;;6.88;5.03;;;;;;;4.68;54.57;96643.63;6366978;22;20055;-60
2022/03/27 06:52:54;;;;;;;7.25;4.68;;;;;;;4.68;54.91;96647.09;6366769;22;20002;-61
2022/03/27 06:55:20;;;;;;;6.85;5.30;;;;;;;4.66;53.45;96642.88;6366781;22;20406;-60
2022/03/27 06:57:45;;;;;;;6.60;5.97;;;;;;;4.72;54.39;96648.59;6367032;22;20006;-60
2022/03/27 07:03:06;;;;;;;7.35;5.80;;;;;;;4.77;54.09;96650.97;6365765;22;20021;-60
2022/03/27 07:05:36;;;;;;;8.88;5.78;;;;;;;4.83;54.39;96660.22;6365201;22;20006;-61
2022/03/27 07:08:12;;;;;;;7.07;5.93;;;;;;;4.82;54.70;96662.00;6365334;22;20085;-61
2022/03/27 07:10:39;;;;;;;13.10;9.95;;;;;;;4.90;54.98;96655.50;6365379;22;20350;-60
2022/03/27 07:13:07;;;;;;;12.23;7.97;;;;;;;5.30;54.53;96658.56;6337445;22;20479;-60
2022/03/27 07:15:32;;;;;;;8.43;7.57;;;;;;;6.42;51.33;96660.88;6365677;22;20010;-60
2022/03/27 07:18:00;;;;;;;8.95;5.55;;;;;;;7.38;47.73;96661.16;6365696;22;20430;-60
2022/03/27 07:20:32;;;;;;;6.60;5.72;;;;;;;7.99;45.04;96661.53;6365732;22;20006;-60
2022/03/27 07:23:00;;;;;;;5.70;5.10;;;;;;;8.76;44.29;96662.56;6365471;22;20405;-61
2022/03/27 07:25:27;;;;;;;5.55;4.50;;;;;;;9.34;42.62;96659.38;6364964;22;20003;-60
2022/03/27 07:27:53;;;;;;;4.72;4.13;;;;;;;9.87;39.06;96647.69;6365750;22;20007;-61
2022/03/27 07:30:19;;;;;;;6.05;4.40;;;;;;;10.37;36.51;96654.50;6364492;22;20006;-61
2022/03/27 07:32:45;;;;;;;6.30;4.75;;;;;;;10.73;31.96;96652.66;6366500;22;20406;-60
2022/03/27 07:35:14;;;;;;;6.18;5.20;;;;;;;11.02;31.97;96657.44;6365148;22;20040;-61
2022/03/27 07:37:41;;;;;;;12.43;5.18;;;;;;;11.45;33.02;96647.88;6367307;22;20342;-55
2022/03/27 07:40:08;;;;;;;7.25;5.25;;;;;;;12.00;33.08;96649.63;6368435;22;20342;-50
2022/03/27 07:42:35;;;;;;;5.78;5.38;;;;;;;12.57;33.38;96641.38;6368612;22;20013;-54
2022/03/27 07:45:00;;;;;;;6.93;5.63;;;;;;;13.11;33.44;96649.97;6366656;22;20334;-53
2022/03/27 07:47:26;;;;;;;5.28;4.88;;;;;;;13.23;34.65;96649.88;6364393;22;20067;-56
2022/03/27 07:49:51;;;;;;;8.65;5.28;;;;;;;13.51;35.03;96653.59;6365901;22;20037;-54
2022/03/27 07:52:16;;;;;;;5.95;4.82;;;;;;;13.80;35.04;96642.19;6368281;22;20001;-55
2022/03/27 07:54:43;;;;;;;5.32;4.60;;;;;;;14.00;32.24;96640.38;6367482;22;20426;-55
2022/03/27 07:57:08;;;;;;;6.75;5.60;;;;;;;14.26;32.68;96645.09;6367082;22;20072;-56
2022/03/27 07:59:34;;;;;;;5.40;4.90;;;;;;;14.44;32.39;96639.91;6366709;22;20002;-55
2022/03/27 08:02:01;;;;;;;3.78;3.47;;;;;;;14.31;34.49;96640.22;6367579;22;20003;-56
2022/03/27 08:04:26;;;;;;;4.47;4.15;;;;;;;14.44;32.63;96644.34;6365174;22;20446;-55
2022/03/27 08:06:51;;;;;;;5.30;3.95;;;;;;;14.44;31.48;96644.34;6365188;22;20065;-56
2022/03/27 08:09:17;;;;;;;4.10;3.72;;;;;;;14.45;32.75;96648.66;6366257;22;20002;-55
2022/03/27 08:11:42;;;;;;;5.55;4.05;;;;;;;14.44;31.23;96654.94;6365653;22;20002;-58
2022/03/27 08:14:09;;;;;;;5.53;4.20;;;;;;;14.42;31.12;96657.75;6365308;22;20219;-50
2022/03/27 08:16:37;;;;;;;7.03;4.32;;;;;;;14.44;31.10;96658.44;6365984;22;20006;-53
2022/03/27 08:19:03;;;;;;;4.53;3.78;;;;;;;14.28;32.10;96666.97;6368690;22;20008;-52
2022/03/27 08:21:28;;;;;;;5.60;3.83;;;;;;;14.68;30.58;96658.94;6367753;22;20037;-56
2022/03/27 08:23:54;;;;;;;5.20;4.43;;;;;;;14.28;30.66;96659.03;6368322;22;19999;-56
2022/03/27 08:29:04;;;;;;;4.80;4.38;;;;;;;14.49;28.87;96665.13;6367918;22;20071;-56
2022/03/27 08:31:32;;;;;;;6.85;6.10;;;;;;;14.42;26.19;96659.56;6367896;22;20002;-54
2022/03/27 08:33:58;;;;;;;8.23;5.28;;;;;;;14.31;27.03;96660.53;6366635;22;20077;-53
2022/03/27 08:36:24;;;;;;;5.65;5.15;;;;;;;15.02;23.28;96653.97;6367833;22;20398;-52
2022/03/27 08:38:50;;;;;;;6.47;5.25;;;;;;;14.95;22.61;96657.38;6367300;22;20006;-55
2022/03/27 08:41:16;;;;;;;6.30;5.70;;;;;;;14.41;23.27;96658.75;6368030;22;19998;-55
2022/03/27 08:43:43;;;;;;;6.40;5.18;;;;;;;13.99;24.24;96653.75;6367519;22;19998;-54
2022/03/27 08:46:09;;;;;;;5.95;5.32;;;;;;;14.65;23.47;96651.28;6367654;22;20047;-57
2022/03/27 08:48:37;;;;;;;5.35;4.85;;;;;;;13.99;23.30;96662.53;6366748;22;20083;-56
2022/03/27 08:51:08;;;;;;;9.88;6.07;;;;;;;14.26;23.78;96658.34;6368253;22;20002;-54
2022/03/27 08:53:51;;;;;;;5.68;4.97;;;;;;;13.80;24.30;96657.22;6367549;22;20002;-57
2022/03/27 08:56:18;;;;;;;5.97;5.40;;;;;;;13.57;23.63;96663.63;6367819;22;20021;-56
2022/03/27 08:58:45;;;;;;;6.10;5.53;;;;;;;13.97;23.06;96661.00;6366935;22;19995;-56
2022/03/27 09:01:11;;;;;;;8.07;5.47;;;;;;;14.08;23.23;96662.69;6367847;22;20009;-57
2022/03/27 09:03:37;;;;;;;6.15;5.07;;;;;;;14.36;22.42;96662.78;6367921;22;20006;-55
2022/03/27 09:06:05;;;;;;;5.88;5.35;;;;;;;14.69;23.17;96663.25;6367738;22;20006;-55
2022/03/27 09:08:30;;;;;;;7.57;5.80;;;;;;;15.02;22.44;96663.75;6367014;22;20010;-57
2022/03/27 09:10:56;;;;;;;6.40;5.63;;;;;;;15.32;21.33;96656.47;6367448;22;20010;-58
2022/03/27 09:13:23;;;;;;;5.43;4.90;;;;;;;15.17;22.55;96651.69;6367709;22;20083;-57
2022/03/27 09:16:01;;;;;;;5.53;5.03;;;;;;;14.97;22.53;96658.03;6368184;22;20055;-56
2022/03/27 09:18:41;;;;;;;6.43;5.13;;;;;;;15.08;22.06;96657.03;6367375;22;20006;-56
2022/03/27 09:21:07;;;;;;;5.63;5.13;;;;;;;15.00;21.62;96661.22;6368244;22;20013;-57
2022/03/27 09:23:35;;;;;;;6.60;5.45;;;;;;;14.66;21.87;96660.91;6367647;22;20006;-56
2022/03/27 09:26:05;;;;;;;6.70;5.03;;;;;;;15.20;21.92;96662.97;6367429;22;20509;-56
2022/03/27 09:28:33;;;;;;;5.43;4.93;;;;;;;14.72;22.56;96665.66;6367807;22;20342;-57
2022/03/27 09:31:19;;;;;;;5.20;4.80;;;;;;;15.34;21.34;96673.06;6368027;22;20011;-56
2022/03/27 09:33:56;;;;;;;6.03;5.45;;;;;;;15.16;20.37;96665.91;6367971;22;20311;-56
2022/03/27 09:36:40;;;;;;;5.63;5.07;;;;;;;15.49;20.61;96667.28;6367622;22;20040;-57
2022/03/27 09:39:20;;;;;;;6.97;5.78;;;;;;;15.47;21.18;96672.72;6367579;22;20006;-56
2022/03/27 09:41:54;;;;;;;5.13;4.63;;;;;;;15.43;22.46;96669.53;6367347;22;20439;-57
2022/03/27 09:44:34;;;;;;;6.78;5.95;;;;;;;15.49;21.40;96672.59;6367247;22;20089;-58
2022/03/27 09:47:04;;;;;;;6.28;5.68;;;;;;;15.58;20.97;96674.31;6367193;22;20377;-56
2022/03/27 09:49:37;;;;;;;6.80;4.93;;;;;;;15.59;21.01;96673.38;6366479;22;20021;-56
2022/03/27 09:52:08;;;;;;;5.95;5.35;;;;;;;15.93;20.62;96670.06;6366106;22;20013;-54
2022/03/27 09:54:53;;;;;;;5.65;5.03;;;;;;;16.11;20.70;96666.59;6366849;22;20026;-57
2022/03/27 09:57:27;;;;;;;5.30;4.90;;;;;;;16.12;21.50;96671.72;6367508;22;20006;-56
2022/03/27 09:59:54;;;;;;;5.93;5.38;;;;;;;16.37;20.29;96673.75;6366282;22;20464;-55
2022/03/27 10:02:25;;;;;;;5.25;4.80;;;;;;;15.78;22.11;96668.91;6338805;22;20400;-56
2022/03/27 10:05:02;;;;;;;5.97;5.38;;;;;;;15.96;21.72;96667.13;6366856;22;20006;-54
2022/03/27 10:07:33;;;;;;;5.68;5.18;;;;;;;16.22;21.64;96670.84;6365782;22;20011;-55
2022/03/27 10:09:59;;;;;;;6.07;5.25;;;;;;;16.21;21.83;96662.00;6365166;22;20005;-57
2022/03/27 10:12:30;;;;;;;6.03;5.38;;;;;;;16.28;21.96;96659.59;6366096;22;20002;-55
2022/03/27 10:15:00;;;;;;;6.85;5.15;;;;;;;16.04;21.78;96664.56;6366769;22;20002;-56
2022/03/27 10:17:28;;;;;;;6.05;5.47;;;;;;;16.06;20.58;96653.75;6367277;22;20018;-57
2022/03/27 10:19:59;;;;;;;7.10;4.43;;;;;;;15.95;20.02;96654.81;6366650;22;20081;-55
2022/03/27 10:22:27;;;;;;;8.63;5.95;;;;;;;15.76;19.86;96653.94;6366827;22;20441;-56
2022/03/27 10:24:56;;;;;;;7.25;5.40;;;;;;;15.95;19.83;96652.16;6366845;22;20002;-54
2022/03/27 10:27:22;;;;;;;5.13;4.72;;;;;;;15.98;19.30;96649.22;6366656;22;20006;-53
2022/03/27 10:29:48;;;;;;;8.75;6.40;;;;;;;15.66;20.85;96655.84;6366880;22;19998;-54
2022/03/27 10:32:14;;;;;;;6.28;5.20;;;;;;;15.94;19.79;96653.16;6367081;22;20074;-54
2022/03/27 10:34:48;;;;;;;7.97;6.63;;;;;;;15.94;20.97;96658.47;6366902;22;20379;-50
2022/03/27 10:37:33;;;;;;;6.85;6.18;;;;;;;15.95;20.41;96652.16;6338842;22;20442;-55
2022/03/27 10:40:22;;;;;;;7.07;6.03;;;;;;;15.74;22.46;96653.28;6366643;22;20010;-55
2022/03/27 10:43:15;;;;;;;7.07;5.75;;;;;;;15.93;22.02;96658.63;6345932;22;20022;-54
2022/03/27 10:45:40;;;;;;;7.47;6.88;;;;;;;16.20;20.06;96652.38;6338194;22;20022;-55
2022/03/27 10:48:08;;;;;;;8.65;7.50;;;;;;;16.35;20.58;96644.69;6366671;22;20775;-54
2022/03/27 10:50:47;;;;;;;9.68;7.20;;;;;;;16.58;21.24;96644.19;6366931;22;20078;-58
2022/03/27 10:53:13;;;;;;;6.97;5.75;;;;;;;16.92;20.35;96646.03;6366819;22;20002;-55
2022/03/27 10:55:44;;;;;;;8.23;7.30;;;;;;;17.11;19.99;96634.34;6366525;22;20008;-55
2022/03/27 10:58:33;;;;;;;6.28;5.68;;;;;;;17.13;19.48;96635.03;6366645;22;19998;-55
2022/03/27 11:01:03;;;;;;;8.07;6.88;;;;;;;17.28;19.84;96626.44;6366941;22;20430;-54
2022/03/27 11:03:51;;;;;;;8.07;6.97;;;;;;;16.93;19.66;96630.94;6366578;22;20005;-55
2022/03/27 11:06:21;;;;;;;9.85;7.47;;;;;;;16.81;20.30;96627.72;6366730;22;20026;-54
2022/03/27 11:08:48;;;;;;;9.40;6.95;;;;;;;16.81;20.27;96628.53;6367088;22;20012;-54
2022/03/27 11:11:33;;;;;;;8.32;7.45;;;;;;;17.10;20.16;96630.00;6367296;22;20335;-53
2022/03/27 11:14:00;;;;;;;11.05;7.30;;;;;;;17.44;20.00;96629.16;6368473;22;20005;-54
2022/03/27 11:16:26;;;;;;;7.95;7.15;;;;;;;17.48;20.21;96635.00;6368710;22;20051;-51
2022/03/27 11:18:51;;;;;;;9.88;7.75;;;;;;;17.38;19.76;96623.63;6369038;22;20368;-54
2022/03/27 11:21:28;;;;;;;7.78;6.93;;;;;;;17.25;19.35;96632.94;6369152;22;20303;-54
2022/03/27 11:24:16;;;;;;;7.03;6.18;;;;;;;16.98;20.03;96629.47;6368588;22;20011;-52
2022/03/27 11:26:42;;;;;;;8.18;7.25;;;;;;;16.89;20.22;96625.91;6342883;22;20014;-53
2022/03/27 11:29:10;;;;;;;10.35;7.13;;;;;;;16.98;20.00;96625.97;6366307;22;20002;-53
2022/03/27 11:31:37;;;;;;;9.93;6.82;;;;;;;17.01;20.33;96615.84;6366207;22;19994;-51
2022/03/27 11:34:12;;;;;;;7.15;6.50;;;;;;;16.68;20.96;96625.47;6366260;22;19998;-55
2022/03/27 11:37:23;;;;;;;8.90;6.65;;;;;;;17.08;19.91;96617.88;6366019;22;20008;-53
2022/03/27 11:39:49;;;;;;;9.18;6.70;;;;;;;17.02;20.40;96624.66;6366126;22;20047;-51
2022/03/27 11:42:21;;;;;;;5.97;5.38;;;;;;;17.47;19.75;96617.34;6366671;22;19999;-51
2022/03/27 11:47:47;;;;;;;7.78;6.00;;;;;;;17.41;20.68;96615.31;6366671;22;20061;-49
2022/03/27 11:50:26;;;;;;;8.25;6.28;;;;;;;17.34;19.98;96604.47;6366738;22;20003;-53